Time;durP1;ratioP1;P1;durP2;ratioP2;P2;SDS_P1;SDS_P2;PMS_P1;PMS_P2;Temp;Humidity;BMP_temperature;BMP_pressure;BME280_temperature;BME280_humidity;BME280_pressure;Samples;Min_cycle;Max_cycle;Signal;HPM_P1;HPM_P2
2022/04/15 00:02:03;;;;;;;4.07;3.70;;;13.30;60.50;;;;;;6290964;28;20193;-67
2022/04/15 00:05:29;;;;;;;4.97;3.17;;;13.30;60.70;;;;;;6307784;28;20215;-67
2022/04/15 00:08:25;;;;;;;4.03;3.13;;;13.30;60.80;;;;;;6311236;28;20268;-67
2022/04/15 00:11:28;;;;;;;3.53;3.23;;;13.30;61.00;;;;;;6291610;28;20263;-67
2022/04/15 00:14:29;;;;;;;3.97;3.53;;;13.30;61.10;;;;;;6283118;28;20263;-67
2022/04/15 00:17:30;;;;;;;3.83;3.43;;;13.20;61.20;;;;;;6266339;28;20192;-67
2022/04/15 00:20:31;;;;;;;4.10;3.70;;;13.20;61.30;;;;;;6266262;28;20272;-67
2022/04/15 00:23:32;;;;;;;4.67;4.17;;;13.20;61.40;;;;;;6265602;28;20196;-67
2022/04/15 00:26:33;;;;;;;4.63;3.70;;;13.20;61.50;;;;;;6281904;28;20228;-67
2022/04/15 00:29:34;;;;;;;4.70;3.80;;;13.20;61.80;;;;;;6282680;28;20188;-67
2022/04/15 00:32:35;;;;;;;4.27;3.63;;;13.10;62.10;;;;;;6283011;28;20238;-67
2022/04/15 00:35:36;;;;;;;4.30;3.90;;;13.00;62.20;;;;;;6307536;28;20185;-67
2022/04/15 00:38:37;;;;;;;4.70;3.63;;;13.00;62.30;;;;;;6307657;28;20184;-67
2022/04/15 00:41:43;;;;;;;4.10;3.77;;;13.00;62.30;;;;;;6286077;28;20192;-67
2022/04/15 00:44:43;;;;;;;5.13;3.67;;;12.90;62.40;;;;;;6277543;28;20231;-67
2022/04/15 00:47:50;;;;;;;3.87;3.43;;;13.00;62.40;;;;;;6262721;28;20211;-67
2022/04/15 00:50:51;;;;;;;4.00;3.63;;;12.90;62.60;;;;;;6290312;28;20191;-67
2022/04/15 00:53:54;;;;;;;4.53;4.10;;;13.00;62.60;;;;;;6304810;28;20203;-67
2022/04/15 00:57:00;;;;;;;4.57;3.80;;;12.90;62.80;;;;;;6306504;28;20215;-67
2022/04/15 01:00:03;;;;;;;4.30;3.57;;;12.90;62.90;;;;;;6303822;28;20190;-67
2022/04/15 01:03:06;;;;;;;4.87;4.40;;;12.80;63.00;;;;;;6282600;28;20219;-67
2022/04/15 01:06:07;;;;;;;4.90;4.40;;;12.80;63.40;;;;;;6271566;28;20211;-67
2022/04/15 01:09:10;;;;;;;4.23;3.33;;;12.80;63.60;;;;;;6290426;28;20297;-67
2022/04/15 01:12:11;;;;;;;7.97;5.17;;;12.80;63.60;;;;;;6283628;28;20193;-67
2022/04/15 01:15:13;;;;;;;5.47;3.90;;;12.80;64.50;;;;;;6281206;28;20197;-67
2022/04/15 01:18:14;;;;;;;4.27;3.80;;;12.80;64.50;;;;;;6257716;28;20279;-67
2022/04/15 01:21:17;;;;;;;3.67;3.33;;;12.80;64.40;;;;;;6289869;28;20202;-67
2022/04/15 01:24:18;;;;;;;4.40;4.00;;;12.80;64.30;;;;;;6294682;28;20193;-67
2022/04/15 01:27:33;;;;;;;4.17;3.70;;;12.80;64.40;;;;;;6276585;28;20321;-67
2022/04/15 01:30:34;;;;;;;4.13;3.80;;;12.90;64.50;;;;;;6306355;28;20237;-68
2022/04/15 01:33:35;;;;;;;4.47;4.03;;;12.90;64.60;;;;;;6289289;28;20195;-68
2022/04/15 01:36:36;;;;;;;5.40;4.87;;;12.90;64.60;;;;;;6306595;28;20196;-68
2022/04/15 01:39:38;;;;;;;4.53;4.13;;;12.90;64.70;;;;;;6289437;28;20275;-68
2022/04/15 01:42:40;;;;;;;4.10;3.70;;;12.90;64.70;;;;;;6285162;28;20203;-68
2022/04/15 01:45:41;;;;;;;5.77;4.17;;;12.80;64.90;;;;;;6289877;28;20224;-68
2022/04/15 01:48:42;;;;;;;4.20;3.80;;;12.80;65.10;;;;;;6306669;28;20181;-68
2022/04/15 01:51:42;;;;;;;5.37;4.10;;;12.80;65.10;;;;;;6272835;28;20261;-68
2022/04/15 01:54:43;;;;;;;4.13;3.73;;;12.80;65.20;;;;;;6267408;28;20191;-68
2022/04/15 01:57:45;;;;;;;4.57;3.80;;;12.80;65.30;;;;;;6274537;28;20215;-67
2022/04/15 02:00:47;;;;;;;5.73;4.00;;;12.90;65.30;;;;;;6265247;28;20199;-67
2022/04/15 02:03:48;;;;;;;4.33;3.83;;;12.80;65.30;;;;;;6281529;28;20188;-67
2022/04/15 02:06:49;;;;;;;7.30;4.20;;;12.80;65.40;;;;;;6281648;28;20209;-68
2022/04/15 02:09:50;;;;;;;4.70;4.30;;;12.80;65.40;;;;;;6281366;28;20223;-67
2022/04/15 02:12:50;;;;;;;4.30;3.87;;;12.80;65.50;;;;;;6281582;28;20181;-68
2022/04/15 02:15:51;;;;;;;4.30;3.67;;;12.80;65.60;;;;;;6276382;28;20193;-66
2022/04/15 02:18:52;;;;;;;7.40;4.90;;;12.80;65.60;;;;;;6280693;28;20202;-67
2022/04/15 02:21:53;;;;;;;5.27;4.27;;;12.80;65.90;;;;;;6264610;28;20250;-67
2022/04/15 02:24:53;;;;;;;5.93;4.03;;;12.80;65.90;;;;;;6265877;28;20223;-67
2022/04/15 02:27:54;;;;;;;4.73;4.10;;;12.80;66.00;;;;;;6269245;28;20264;-67
2022/04/15 02:30:55;;;;;;;4.40;4.00;;;12.70;66.00;;;;;;6268382;28;20336;-67
2022/04/15 02:33:56;;;;;;;4.90;4.40;;;12.70;66.10;;;;;;6264841;28;20197;-67
2022/04/15 02:36:56;;;;;;;4.70;4.30;;;12.80;66.20;;;;;;6248178;28;20204;-67
2022/04/15 02:39:57;;;;;;;6.80;4.20;;;12.80;66.20;;;;;;6281221;28;20193;-67
2022/04/15 02:43:00;;;;;;;5.50;4.93;;;12.80;66.30;;;;;;6267318;28;20192;-66
2022/04/15 02:46:02;;;;;;;4.73;4.27;;;12.70;66.40;;;;;;6301442;28;20222;-66
2022/04/15 02:49:03;;;;;;;4.63;4.13;;;12.70;66.40;;;;;;6293537;28;20181;-66
2022/04/15 02:52:05;;;;;;;6.10;5.00;;;12.70;66.40;;;;;;6311674;28;20188;-67
2022/04/15 02:55:06;;;;;;;7.27;4.70;;;12.70;66.50;;;;;;6293601;28;20184;-69
2022/04/15 02:58:06;;;;;;;7.43;5.23;;;12.70;66.60;;;;;;6285056;28;20185;-69
2022/04/15 03:01:07;;;;;;;5.13;4.60;;;12.70;66.90;;;;;;6255254;28;20187;-69
2022/04/15 03:04:08;;;;;;;7.60;4.60;;;12.70;66.80;;;;;;6261453;28;20220;-66
2022/04/15 03:07:09;;;;;;;6.80;5.03;;;12.70;66.80;;;;;;6267911;28;20307;-66
2022/04/15 03:10:10;;;;;;;6.27;5.67;;;12.70;66.80;;;;;;6284860;28;20211;-67
2022/04/15 03:13:10;;;;;;;5.47;4.40;;;12.70;67.00;;;;;;6267851;28;20184;-67
2022/04/15 03:16:11;;;;;;;5.37;4.90;;;12.60;67.10;;;;;;6293408;28;20341;-67
2022/04/15 03:19:12;;;;;;;4.20;3.60;;;12.70;67.10;;;;;;6301389;28;20214;-67
2022/04/15 03:22:15;;;;;;;5.10;4.63;;;12.70;67.20;;;;;;6267969;28;20250;-67
2022/04/15 03:25:17;;;;;;;5.60;4.80;;;12.70;67.30;;;;;;6287323;28;20225;-67
2022/04/15 03:28:19;;;;;;;6.60;4.80;;;12.70;67.30;;;;;;6292490;28;20173;-67
2022/04/15 03:31:20;;;;;;;4.43;4.07;;;12.80;67.30;;;;;;6258257;28;20243;-67
2022/04/15 03:34:21;;;;;;;5.80;4.80;;;12.70;67.30;;;;;;6234779;28;20174;-67
2022/04/15 03:37:22;;;;;;;6.67;4.90;;;12.70;67.30;;;;;;6248789;28;20198;-67
2022/04/15 03:40:23;;;;;;;5.57;5.00;;;12.60;67.40;;;;;;6275694;28;20243;-67
2022/04/15 03:43:24;;;;;;;5.67;4.97;;;12.60;67.40;;;;;;6258492;28;20221;-67
2022/04/15 03:46:25;;;;;;;6.20;5.10;;;12.60;67.80;;;;;;6240003;28;20221;-67
2022/04/15 03:49:26;;;;;;;6.70;5.07;;;12.50;67.80;;;;;;6245012;28;20194;-67
2022/04/15 03:52:27;;;;;;;6.47;5.07;;;12.50;67.90;;;;;;6236747;28;20192;-66
2022/04/15 03:55:28;;;;;;;5.73;4.90;;;12.40;68.00;;;;;;6242142;28;20205;-66
2022/04/15 03:58:29;;;;;;;7.43;5.63;;;12.40;68.10;;;;;;6253078;28;20206;-67
2022/04/15 04:01:30;;;;;;;8.10;6.10;;;12.30;68.20;;;;;;6236520;28;20201;-66
2022/04/15 04:04:31;;;;;;;6.23;5.63;;;12.30;68.30;;;;;;6258886;28;20191;-67
2022/04/15 04:07:32;;;;;;;8.13;6.40;;;12.30;68.40;;;;;;6239419;28;20225;-67
2022/04/15 04:10:33;;;;;;;9.23;6.13;;;12.30;68.60;;;;;;6241418;28;20228;-67
2022/04/15 04:13:34;;;;;;;7.90;6.37;;;12.30;68.50;;;;;;6237116;28;20205;-66
2022/04/15 04:16:35;;;;;;;9.40;7.23;;;12.30;68.60;;;;;;6248872;28;20205;-65
2022/04/15 04:19:36;;;;;;;9.00;6.67;;;12.30;68.70;;;;;;6247382;28;20237;-67
2022/04/15 04:22:37;;;;;;;8.63;6.90;;;12.30;68.70;;;;;;6235894;28;20210;-67
2022/04/15 04:25:38;;;;;;;9.13;6.53;;;12.30;68.70;;;;;;6253447;28;20221;-67
2022/04/15 04:28:39;;;;;;;8.13;6.47;;;12.40;68.90;;;;;;6237520;28;20210;-68
2022/04/15 04:31:40;;;;;;;6.87;6.17;;;12.40;69.00;;;;;;6241013;28;20252;-68
2022/04/15 04:34:41;;;;;;;8.27;5.90;;;12.40;69.00;;;;;;6219590;28;20232;-68
2022/04/15 04:37:41;;;;;;;7.40;5.67;;;12.40;69.00;;;;;;6245334;28;20194;-68
2022/04/15 04:40:43;;;;;;;6.27;5.53;;;12.40;69.10;;;;;;6242571;28;20202;-68
2022/04/15 04:43:44;;;;;;;7.40;5.53;;;12.50;69.30;;;;;;6240563;28;20199;-68
2022/04/15 04:46:45;;;;;;;5.53;5.03;;;12.50;69.30;;;;;;6233414;28;20295;-68
2022/04/15 04:49:46;;;;;;;6.37;5.77;;;12.50;69.30;;;;;;6233615;28;20197;-68
2022/04/15 04:52:48;;;;;;;7.87;7.07;;;12.60;69.30;;;;;;6257887;28;20232;-68
2022/04/15 04:55:49;;;;;;;10.77;6.80;;;12.60;69.80;;;;;;6269006;28;20222;-70
2022/04/15 04:58:50;;;;;;;10.47;7.10;;;12.60;69.50;;;;;;6257943;28;20190;-70
2022/04/15 05:01:53;;;;;;;10.63;7.37;;;12.60;69.40;;;;;;6253138;28;20281;-70
2022/04/15 05:04:54;;;;;;;11.27;6.47;;;12.60;69.40;;;;;;6255816;28;20195;-70
2022/04/15 05:07:55;;;;;;;7.90;6.50;;;12.60;69.40;;;;;;6246477;28;20224;-70
2022/04/15 05:10:56;;;;;;;9.67;6.20;;;12.60;69.50;;;;;;6243992;28;20247;-70
2022/04/15 05:13:57;;;;;;;6.37;5.50;;;12.60;69.60;;;;;;6235795;28;20194;-70
2022/04/15 05:16:57;;;;;;;6.03;5.33;;;12.60;69.70;;;;;;6249011;28;20191;-70
2022/04/15 05:19:58;;;;;;;7.10;5.70;;;12.70;69.90;;;;;;6255315;28;20222;-70
2022/04/15 05:22:59;;;;;;;10.83;6.10;;;12.70;69.90;;;;;;6251505;28;20189;-69
2022/04/15 05:26:00;;;;;;;6.33;5.13;;;12.70;70.00;;;;;;6244494;28;20218;-71
2022/04/15 05:29:02;;;;;;;5.70;5.13;;;12.70;70.00;;;;;;6229687;28;20195;-70
2022/04/15 05:32:03;;;;;;;7.67;5.83;;;12.80;70.10;;;;;;6260049;28;20236;-68
2022/04/15 05:35:04;;;;;;;6.10;5.13;;;12.80;70.10;;;;;;6232156;28;20200;-70
2022/04/15 05:38:07;;;;;;;6.20;5.60;;;12.80;70.20;;;;;;6251022;28;20190;-69
2022/04/15 05:41:08;;;;;;;9.07;5.20;;;12.80;70.30;;;;;;6226303;28;20190;-69
2022/04/15 05:44:12;;;;;;;6.57;5.63;;;12.80;70.40;;;;;;6254633;28;20204;-69
2022/04/15 05:47:14;;;;;;;9.30;5.60;;;12.80;70.50;;;;;;6251754;28;20236;-68
2022/04/15 05:50:14;;;;;;;6.83;5.83;;;12.80;70.60;;;;;;6256139;28;20295;-67
2022/04/15 05:53:15;;;;;;;6.00;5.07;;;12.80;70.70;;;;;;6256358;28;20189;-69
2022/04/15 05:56:16;;;;;;;6.60;5.90;;;12.80;70.70;;;;;;6222997;28;20193;-70
2022/04/15 05:59:20;;;;;;;8.20;6.77;;;12.90;71.10;;;;;;6247699;28;20244;-68
2022/04/15 06:02:22;;;;;;;8.30;5.87;;;12.90;71.30;;;;;;6231709;28;20260;-70
2022/04/15 06:05:24;;;;;;;7.87;5.40;;;12.90;71.10;;;;;;6248116;28;20224;-69
2022/04/15 06:08:25;;;;;;;5.93;5.33;;;12.90;71.10;;;;;;6248442;28;20194;-75
2022/04/15 06:11:26;;;;;;;7.20;5.13;;;12.90;71.10;;;;;;6248455;28;20190;-69
2022/04/15 06:14:30;;;;;;;9.17;5.40;;;12.90;71.10;;;;;;6253401;28;20202;-69
2022/04/15 06:17:31;;;;;;;5.50;4.73;;;13.00;71.10;;;;;;6246670;28;20253;-69
2022/04/15 06:20:32;;;;;;;6.30;5.73;;;13.00;71.20;;;;;;6235373;28;20194;-69
2022/04/15 06:23:32;;;;;;;6.53;5.87;;;13.00;71.20;;;;;;6252794;28;20231;-69
2022/04/15 06:26:33;;;;;;;6.07;5.47;;;13.10;71.30;;;;;;6251772;28;20226;-69
2022/04/15 06:29:34;;;;;;;5.53;5.00;;;13.20;71.20;;;;;;6257016;28;20186;-68
2022/04/15 06:32:36;;;;;;;6.50;5.70;;;13.30;71.20;;;;;;6266866;28;20284;-68
2022/04/15 06:35:37;;;;;;;5.67;5.10;;;13.30;71.20;;;;;;6301951;28;20283;-69
2022/04/15 06:38:38;;;;;;;7.57;5.83;;;13.50;71.20;;;;;;6268079;28;20228;-69
2022/04/15 06:41:40;;;;;;;8.07;6.47;;;13.60;71.30;;;;;;6274053;28;20204;-69
2022/04/15 06:44:41;;;;;;;10.33;7.33;;;13.70;71.70;;;;;;6289269;28;20356;-70
2022/04/15 06:47:42;;;;;;;7.53;6.50;;;13.80;71.80;;;;;;6268674;28;20224;-70
2022/04/15 06:50:43;;;;;;;5.90;5.40;;;13.90;71.50;;;;;;6284822;28;20189;-69
2022/04/15 06:53:44;;;;;;;8.27;5.93;;;14.00;71.10;;;;;;6294576;28;20198;-76
2022/04/15 06:56:45;;;;;;;7.10;5.70;;;14.20;70.70;;;;;;6251983;28;20190;-77
2022/04/15 06:59:45;;;;;;;9.57;6.23;;;14.30;70.30;;;;;;6268319;28;20186;-76
2022/04/15 07:02:46;;;;;;;9.00;7.13;;;14.40;69.70;;;;;;6268956;28;20251;-71
2022/04/15 07:05:47;;;;;;;15.17;8.23;;;14.50;68.00;;;;;;6268326;28;20312;-71
2022/04/15 07:08:48;;;;;;;8.90;6.23;;;14.60;67.30;;;;;;6285083;28;20192;-71
2022/04/15 07:11:48;;;;;;;6.50;5.63;;;14.80;67.20;;;;;;6293359;28;20223;-71
2022/04/15 07:14:49;;;;;;;10.60;6.60;;;14.90;66.90;;;;;;6292850;28;20189;-71
2022/04/15 07:17:50;;;;;;;8.90;5.63;;;14.90;66.50;;;;;;6288988;28;20200;-71
2022/04/15 07:20:51;;;;;;;8.47;5.57;;;15.00;66.30;;;;;;6288718;28;20283;-71
2022/04/15 07:23:52;;;;;;;8.93;5.57;;;15.10;66.40;;;;;;6292583;28;20201;-71
2022/04/15 07:26:53;;;;;;;11.43;7.00;;;15.20;66.50;;;;;;6281252;28;20221;-70
2022/04/15 07:29:54;;;;;;;8.50;5.50;;;15.30;66.20;;;;;;6284219;28;20245;-70
2022/04/15 07:32:55;;;;;;;11.93;8.07;;;15.30;66.10;;;;;;6294069;28;20288;-71
2022/04/15 07:35:56;;;;;;;10.10;7.83;;;15.30;66.00;;;;;;6267702;28;20222;-71
2022/04/15 07:38:57;;;;;;;9.90;6.63;;;15.30;66.00;;;;;;6267478;28;20196;-70
2022/04/15 07:41:57;;;;;;;8.73;5.70;;;15.30;66.20;;;;;;6285686;28;20219;-65
2022/04/15 07:44:58;;;;;;;8.23;5.00;;;15.80;68.40;;;;;;6271505;28;20201;-65
2022/04/15 07:47:59;;;;;;;4.87;4.40;;;16.00;69.70;;;;;;6295924;28;20332;-65
2022/04/15 07:51:00;;;;;;;7.40;4.67;;;16.10;71.10;;;;;;6266145;28;20204;-65
2022/04/15 07:54:02;;;;;;;6.53;5.40;;;16.10;73.30;;;;;;6309640;28;20187;-65
2022/04/15 07:57:03;;;;;;;7.73;6.07;;;16.00;75.20;;;;;;6270387;28;20193;-65
2022/04/15 08:00:05;;;;;;;7.50;6.73;;;15.80;75.40;;;;;;6280373;28;20201;-65
2022/04/15 08:03:12;;;;;;;10.37;8.37;;;15.60;73.70;;;;;;6281206;28;20198;-65
2022/04/15 08:06:14;;;;;;;11.97;9.20;;;15.40;73.30;;;;;;6265180;28;20221;-65
2022/04/15 08:09:15;;;;;;;9.90;9.00;;;15.20;75.30;;;;;;6290895;28;20189;-65
2022/04/15 08:12:16;;;;;;;10.60;9.50;;;15.00;74.80;;;;;;6305085;28;20177;-67
2022/04/15 08:15:17;;;;;;;11.13;10.03;;;14.80;78.30;;;;;;6280117;28;20197;-68
2022/04/15 08:18:18;;;;;;;8.37;7.37;;;14.70;80.50;;;;;;6288890;28;20287;-68
2022/04/15 08:21:19;;;;;;;9.10;8.30;;;14.50;81.90;;;;;;6266366;28;20181;-67
2022/04/15 08:24:21;;;;;;;9.07;8.17;;;14.30;83.40;;;;;;6280799;28;20185;-67
2022/04/15 08:27:22;;;;;;;9.53;8.20;;;14.30;84.50;;;;;;6285417;28;20351;-68
2022/04/15 08:30:23;;;;;;;7.23;6.53;;;14.20;85.20;;;;;;6279055;28;20245;-67
2022/04/15 08:33:24;;;;;;;9.20;8.33;;;14.20;85.80;;;;;;6281204;28;20195;-68
2022/04/15 08:36:24;;;;;;;8.97;8.17;;;14.10;86.50;;;;;;6289242;28;20202;-68
2022/04/15 08:39:26;;;;;;;8.27;7.40;;;14.10;86.80;;;;;;6263901;28;20224;-68
2022/04/15 08:42:27;;;;;;;14.27;11.17;;;14.00;87.30;;;;;;6278332;28;20193;-68
2022/04/15 08:45:28;;;;;;;12.47;11.27;;;14.00;87.90;;;;;;6286344;28;20220;-69
2022/04/15 08:48:31;;;;;;;9.27;8.37;;;14.00;88.50;;;;;;6284223;28;20196;-69
2022/04/15 08:51:34;;;;;;;13.07;11.83;;;14.00;88.70;;;;;;6278203;28;20197;-69
2022/04/15 08:54:35;;;;;;;11.63;10.43;;;14.10;89.30;;;;;;6312506;28;20213;-68
2022/04/15 08:57:36;;;;;;;9.97;8.97;;;14.10;89.50;;;;;;6275461;28;20200;-67
2022/04/15 09:00:36;;;;;;;11.50;10.30;;;14.20;89.80;;;;;;6280601;28;20192;-67
2022/04/15 09:03:38;;;;;;;10.73;9.67;;;14.30;90.00;;;;;;6271366;28;20203;-68
2022/04/15 09:06:42;;;;;;;10.90;9.80;;;14.40;90.40;;;;;;6287870;28;20218;-67
2022/04/15 09:09:55;;;;;;;15.60;14.10;;;14.60;90.40;;;;;;6304627;28;20193;-67
2022/04/15 09:12:56;;;;;;;12.50;11.23;;;14.70;90.30;;;;;;6287256;28;20189;-67
2022/04/15 09:15:59;;;;;;;16.70;14.80;;;14.70;90.40;;;;;;6278472;28;20297;-67
2022/04/15 09:19:01;;;;;;;12.60;11.37;;;14.90;90.30;;;;;;6279588;28;20629;-67
2022/04/15 09:22:03;;;;;;;16.13;14.33;;;15.00;90.30;;;;;;6263719;28;20209;-67
2022/04/15 09:25:05;;;;;;;11.47;10.37;;;15.10;89.90;;;;;;6277283;28;20284;-68
2022/04/15 09:28:06;;;;;;;13.23;11.93;;;15.20;90.10;;;;;;6287496;28;20311;-67
2022/04/15 09:31:14;;;;;;;14.87;13.37;;;15.20;90.20;;;;;;6251453;28;20230;-67
2022/04/15 09:34:15;;;;;;;13.73;11.80;;;15.20;89.10;;;;;;6246185;28;20276;-67
2022/04/15 09:37:17;;;;;;;12.67;9.90;;;15.20;89.80;;;;;;6213090;28;20187;-68
2022/04/15 09:40:22;;;;;;;8.73;7.93;;;15.20;90.00;;;;;;6246794;28;20214;-67
2022/04/15 09:43:24;;;;;;;14.10;12.73;;;15.20;90.20;;;;;;6246974;28;20260;-67
2022/04/15 09:46:29;;;;;;;11.33;10.27;;;15.10;89.90;;;;;;6263832;28;20253;-67
2022/04/15 09:49:34;;;;;;;12.20;11.10;;;15.10;90.00;;;;;;6236357;28;20213;-67
2022/04/15 09:52:35;;;;;;;11.10;10.10;;;15.10;90.20;;;;;;6241100;28;20214;-67
2022/04/15 09:55:40;;;;;;;12.27;11.03;;;15.10;90.60;;;;;;6217243;28;20290;-67
2022/04/15 09:58:44;;;;;;;13.83;12.47;;;15.10;90.20;;;;;;6265709;28;20198;-67
2022/04/15 10:01:47;;;;;;;11.93;10.77;;;15.00;90.10;;;;;;6247852;28;20194;-68
2022/04/15 10:04:48;;;;;;;10.50;9.50;;;15.00;90.20;;;;;;6243374;28;20207;-68
2022/04/15 10:07:49;;;;;;;14.83;13.43;;;15.00;90.60;;;;;;6235393;28;20234;-69
2022/04/15 10:10:51;;;;;;;12.10;10.73;;;14.90;90.70;;;;;;6235394;28;20182;-66
2022/04/15 10:13:52;;;;;;;13.03;11.83;;;14.90;91.10;;;;;;6217876;28;20264;-66
2022/04/15 10:16:53;;;;;;;13.33;12.13;;;14.90;91.40;;;;;;6224316;28;20200;-68
2022/04/15 10:19:54;;;;;;;14.40;13.00;;;14.80;91.70;;;;;;6242448;28;20351;-67
2022/04/15 10:23:06;;;;;;;11.97;10.90;;;14.80;91.70;;;;;;6242421;28;20190;-69
2022/04/15 10:26:08;;;;;;;11.80;10.70;;;14.70;92.10;;;;;;6242669;28;20252;-68
2022/04/15 10:29:10;;;;;;;11.37;10.20;;;14.70;92.30;;;;;;6258536;28;20190;-68
2022/04/15 10:32:13;;;;;;;14.87;13.57;;;14.70;92.60;;;;;;6239500;28;20276;-67
2022/04/15 10:35:22;;;;;;;17.37;15.67;;;14.70;92.90;;;;;;6275221;28;20270;-68
2022/04/15 10:38:23;;;;;;;14.17;12.87;;;14.70;93.10;;;;;;6287335;28;20179;-68
2022/04/15 10:41:23;;;;;;;16.73;15.23;;;14.70;93.20;;;;;;6250244;28;20202;-67
2022/04/15 10:44:27;;;;;;;20.63;18.60;;;14.70;93.10;;;;;;6233162;28;20202;-68
2022/04/15 10:47:29;;;;;;;19.57;17.67;;;14.60;92.20;;;;;;6249127;28;20241;-68
2022/04/15 10:50:33;;;;;;;15.30;13.80;;;14.60;92.70;;;;;;6254459;28;20194;-68
2022/04/15 10:53:34;;;;;;;22.07;19.73;;;14.60;93.10;;;;;;6282734;28;20185;-68
2022/04/15 10:56:58;;;;;;;17.47;15.77;;;14.70;93.20;;;;;;6276604;28;20203;-68
2022/04/15 11:03:20;;;;;;;16.63;14.93;;;14.70;93.20;;;;;;6248185;28;20290;-68
2022/04/15 11:06:29;;;;;;;19.03;17.23;;;14.80;93.20;;;;;;6232867;28;20253;-68
2022/04/15 11:09:30;;;;;;;19.00;17.03;;;15.00;93.10;;;;;;6232227;28;20203;-68
2022/04/15 11:12:35;;;;;;;16.17;14.60;;;15.10;93.20;;;;;;6248926;28;20199;-68
2022/04/15 11:16:12;;;;;;;18.57;16.77;;;15.30;92.80;;;;;;6248729;28;20187;-69
2022/04/15 11:19:17;;;;;;;17.60;15.90;;;15.30;91.10;;;;;;6265677;28;20190;-69
2022/04/15 11:22:21;;;;;;;15.40;14.00;;;15.30;91.00;;;;;;6273977;28;20178;-69
2022/04/15 11:25:24;;;;;;;16.97;15.17;;;15.30;91.20;;;;;;6249766;28;20199;-69
2022/04/15 11:28:26;;;;;;;20.63;16.30;;;15.30;91.90;;;;;;6257248;28;20219;-69
2022/04/15 11:31:27;;;;;;;16.93;15.27;;;15.30;91.10;;;;;;6246472;28;20242;-69
2022/04/15 11:34:28;;;;;;;17.80;16.10;;;15.30;89.60;;;;;;6289124;28;20190;-69
2022/04/15 11:37:29;;;;;;;15.83;14.30;;;15.50;89.10;;;;;;6274908;28;20209;-69
2022/04/15 11:40:34;;;;;;;17.03;14.80;;;15.60;90.00;;;;;;6272762;28;20197;-68
2022/04/15 11:43:35;;;;;;;15.93;14.00;;;15.80;86.80;;;;;;6290135;28;20278;-68
2022/04/15 11:46:36;;;;;;;15.97;14.37;;;15.90;86.80;;;;;;6273823;28;20229;-68
2022/04/15 11:49:41;;;;;;;14.50;13.07;;;16.00;86.70;;;;;;6269223;28;20186;-68
2022/04/15 11:52:42;;;;;;;15.83;13.83;;;16.00;85.80;;;;;;6258607;28;20217;-68
2022/04/15 11:55:58;;;;;;;15.07;13.67;;;16.00;85.30;;;;;;6248137;28;20203;-68
2022/04/15 11:58:59;;;;;;;14.73;13.23;;;16.00;86.90;;;;;;6250843;28;20200;-68
2022/04/15 12:02:01;;;;;;;13.87;12.47;;;16.10;87.10;;;;;;6248685;28;20201;-68
2022/04/15 12:05:02;;;;;;;15.93;14.33;;;16.10;85.60;;;;;;6248398;28;20217;-68
2022/04/15 12:08:06;;;;;;;15.53;14.03;;;16.00;85.20;;;;;;6216306;28;20218;-68
2022/04/15 12:11:06;;;;;;;15.87;13.47;;;16.00;85.20;;;;;;6243970;28;20289;-68
2022/04/15 12:14:08;;;;;;;17.00;15.23;;;16.00;85.40;;;;;;6247667;28;20216;-68
2022/04/15 12:17:11;;;;;;;15.87;14.17;;;16.30;86.40;;;;;;6232409;28;20226;-68
2022/04/15 12:20:14;;;;;;;13.40;12.10;;;17.20;86.70;;;;;;6269387;28;20201;-68
2022/04/15 12:23:15;;;;;;;13.83;12.43;;;18.30;85.00;;;;;;6273201;28;20204;-68
2022/04/15 12:26:16;;;;;;;15.43;11.10;;;19.50;78.60;;;;;;6273340;28;20355;-68
2022/04/15 12:32:39;;;;;;;12.23;10.80;;;21.30;64.60;;;;;;6257924;28;20206;-66
2022/04/15 12:36:01;;;;;;;11.53;10.33;;;22.20;64.20;;;;;;6216614;28;20248;-66
2022/04/15 12:39:05;;;;;;;8.37;7.43;;;22.90;60.60;;;;;;6272476;28;20206;-66
2022/04/15 12:42:06;;;;;;;10.07;9.07;;;23.60;62.00;;;;;;6271819;28;20225;-66
2022/04/15 12:45:12;;;;;;;11.83;8.00;;;24.30;54.90;;;;;;6270454;28;20206;-66
2022/04/15 12:48:13;;;;;;;9.70;8.07;;;24.70;56.40;;;;;;6263102;28;20218;-66
2022/04/15 12:51:14;;;;;;;6.97;6.37;;;25.30;53.70;;;;;;6247953;28;20198;-66
2022/04/15 12:54:14;;;;;;;9.17;7.60;;;26.10;51.80;;;;;;6276696;28;20188;-66
2022/04/15 12:57:18;;;;;;;9.67;7.97;;;26.50;46.20;;;;;;6255565;28;20288;-65
2022/04/15 13:00:19;;;;;;;10.17;7.87;;;26.80;43.70;;;;;;6231337;28;20233;-66
2022/04/15 13:03:21;;;;;;;9.50;8.27;;;26.50;45.50;;;;;;6247594;28;20205;-65
2022/04/15 13:06:24;;;;;;;7.83;7.13;;;26.20;46.00;;;;;;6247056;28;20229;-65
2022/04/15 13:09:25;;;;;;;8.93;8.03;;;25.70;45.60;;;;;;6233167;28;20253;-65
2022/04/15 13:12:26;;;;;;;8.13;7.53;;;25.50;46.10;;;;;;6230793;28;20194;-65
2022/04/15 13:15:26;;;;;;;8.27;7.43;;;25.50;47.10;;;;;;6230623;28;20186;-65
2022/04/15 13:18:27;;;;;;;7.67;6.93;;;25.80;47.50;;;;;;6246680;28;20194;-66
2022/04/15 13:21:28;;;;;;;9.23;8.07;;;26.20;45.60;;;;;;6262601;28;20217;-65
2022/04/15 13:24:29;;;;;;;6.10;5.50;;;26.20;43.90;;;;;;6263267;28;20198;-65
2022/04/15 13:27:31;;;;;;;7.77;7.07;;;26.30;44.30;;;;;;6262958;28;20214;-65
2022/04/15 13:30:31;;;;;;;7.27;6.57;;;26.10;44.80;;;;;;6228718;28;20234;-66
2022/04/15 13:33:32;;;;;;;8.07;7.17;;;25.60;44.10;;;;;;6246760;28;20194;-65
2022/04/15 13:36:34;;;;;;;6.67;6.13;;;25.30;45.40;;;;;;6269811;28;20194;-65
2022/04/15 13:39:35;;;;;;;7.30;6.60;;;24.80;46.00;;;;;;6237448;28;20194;-65
2022/04/15 13:42:36;;;;;;;8.47;7.43;;;24.30;47.20;;;;;;6287728;28;20193;-65
2022/04/15 13:45:36;;;;;;;7.43;6.73;;;23.90;48.80;;;;;;6278405;28;20218;-65
2022/04/15 13:48:37;;;;;;;7.50;6.90;;;23.40;50.40;;;;;;6246887;28;20286;-65
2022/04/15 13:51:38;;;;;;;10.47;7.97;;;22.80;50.90;;;;;;6265974;28;20198;-65
2022/04/15 13:57:58;;;;;;;7.87;7.17;;;21.90;53.50;;;;;;6264908;28;20272;-65
2022/04/15 14:01:00;;;;;;;8.27;7.57;;;21.60;53.50;;;;;;6230180;28;20199;-65
2022/04/15 14:04:12;;;;;;;11.40;10.23;;;21.60;53.70;;;;;;6265181;28;20217;-66
2022/04/15 14:07:13;;;;;;;11.13;9.73;;;21.80;53.10;;;;;;6280901;28;20221;-65
2022/04/15 14:10:14;;;;;;;8.87;7.97;;;22.30;52.40;;;;;;6271415;28;20236;-66
2022/04/15 14:13:15;;;;;;;8.73;7.83;;;22.70;51.20;;;;;;6272458;28;20189;-65
2022/04/15 14:16:16;;;;;;;8.83;7.30;;;22.80;50.30;;;;;;6271131;28;20194;-66
2022/04/15 14:19:17;;;;;;;9.60;8.60;;;23.20;50.70;;;;;;6247178;28;20210;-66
2022/04/15 14:22:20;;;;;;;8.27;6.83;;;23.70;47.90;;;;;;6246772;28;20192;-66
2022/04/15 14:25:21;;;;;;;5.57;5.07;;;24.20;47.50;;;;;;6247056;28;20198;-65
2022/04/15 14:28:21;;;;;;;7.60;6.13;;;24.80;46.90;;;;;;6246506;28;20210;-65
2022/04/15 14:31:22;;;;;;;6.70;6.20;;;25.20;46.90;;;;;;6253960;28;20250;-65
2022/04/15 14:34:23;;;;;;;7.70;7.00;;;25.20;45.90;;;;;;6253969;28;20259;-65
2022/04/15 14:37:24;;;;;;;7.73;7.00;;;24.80;46.50;;;;;;6253675;28;20189;-65
2022/04/15 14:40:25;;;;;;;7.27;6.57;;;24.30;45.90;;;;;;6255779;28;20202;-65
2022/04/15 14:43:25;;;;;;;8.30;6.70;;;23.90;47.20;;;;;;6234471;28;20199;-65
2022/04/15 14:46:26;;;;;;;8.00;7.23;;;23.90;48.30;;;;;;6234104;28;20219;-65
2022/04/15 14:49:27;;;;;;;7.50;6.90;;;23.80;47.00;;;;;;6233987;28;20267;-65
2022/04/15 14:52:27;;;;;;;8.10;6.77;;;23.50;47.20;;;;;;6219586;28;20735;-65
2022/04/15 14:55:28;;;;;;;9.40;8.33;;;23.30;49.20;;;;;;6233999;28;20186;-65
2022/04/15 14:58:30;;;;;;;6.33;5.73;;;23.10;49.40;;;;;;6231290;28;20285;-65
2022/04/15 15:01:31;;;;;;;9.07;7.80;;;23.40;48.80;;;;;;6276376;28;20178;-65
2022/04/15 15:04:33;;;;;;;8.87;7.00;;;23.70;48.60;;;;;;6259003;28;20193;-65
2022/04/15 15:07:34;;;;;;;6.60;6.00;;;24.00;47.70;;;;;;6242959;28;20214;-65
2022/04/15 15:10:35;;;;;;;8.40;7.60;;;24.50;46.30;;;;;;6234048;28;20190;-65
2022/04/15 15:13:39;;;;;;;8.80;7.57;;;24.80;44.90;;;;;;6233769;28;20190;-65
2022/04/15 15:16:41;;;;;;;8.10;7.27;;;25.20;43.90;;;;;;6250275;28;20197;-65
2022/04/15 15:19:46;;;;;;;7.60;6.80;;;25.60;43.30;;;;;;6234284;28;20265;-66
2022/04/15 15:22:47;;;;;;;6.50;5.90;;;25.70;42.70;;;;;;6249932;28;20197;-65
2022/04/15 15:32:27;;;;;;;6.90;6.27;;;25.40;42.50;;;;;;6235593;28;20191;-65
2022/04/15 15:35:28;;;;;;;7.60;6.80;;;25.40;42.70;;;;;;6247799;28;20193;-65
2022/04/15 15:38:29;;;;;;;7.50;6.50;;;25.40;42.30;;;;;;6257715;28;20225;-65
2022/04/15 15:41:30;;;;;;;8.50;6.70;;;25.40;42.20;;;;;;6274380;28;20214;-65
2022/04/15 15:44:31;;;;;;;6.37;5.77;;;25.30;42.30;;;;;;6248868;28;20196;-65
2022/04/15 15:47:31;;;;;;;7.53;6.20;;;25.40;42.80;;;;;;6241701;28;20303;-65
2022/04/15 15:50:32;;;;;;;7.60;6.90;;;25.20;43.10;;;;;;6252729;28;20201;-65
2022/04/15 15:53:33;;;;;;;6.17;5.67;;;24.80;43.20;;;;;;6248898;28;20178;-65
2022/04/15 15:56:35;;;;;;;6.43;5.57;;;24.20;44.40;;;;;;6235493;28;20201;-65